Time;durP1;ratioP1;P1;durP2;ratioP2;P2;SDS_P1;SDS_P2;PMS_P1;PMS_P2;Temp;Humidity;BMP_temperature;BMP_pressure;BME280_temperature;BME280_humidity;BME280_pressure;Samples;Min_cycle;Max_cycle;Signal;HPM_P1;HPM_P2
2022/01/31 00:00:28;;;;;;;13.52;9.30;;;;;;;;;;143730;615;45021;-59
2022/01/31 00:02:55;;;;;;;17.12;11.48;;;;;;;;;;143727;569;46020;-60
2022/01/31 00:05:22;;;;;;;15.25;11.15;;;;;;;;;;143725;597;47022;-60
2022/01/31 00:07:49;;;;;;;18.15;11.43;;;;;;;;;;143726;596;46030;-59
2022/01/31 00:10:26;;;;;;;16.67;11.00;;;;;;;;;;143728;601;45020;-59
2022/01/31 00:12:59;;;;;;;16.65;11.10;;;;;;;;;;143728;619;46020;-60
2022/01/31 00:15:27;;;;;;;16.00;11.18;;;;;;;;;;143725;575;47020;-60
2022/01/31 00:17:54;;;;;;;16.95;11.75;;;;;;;;;;143725;564;46012;-61
2022/01/31 00:20:21;;;;;;;19.17;12.35;;;;;;;;;;143728;587;45911;-60
2022/01/31 00:22:50;;;;;;;17.80;12.02;;;;;;;;;;143730;608;46012;-60
2022/01/31 00:25:17;;;;;;;16.95;11.90;;;;;;;;;;143723;595;47020;-60
2022/01/31 00:27:44;;;;;;;16.62;11.93;;;;;;;;;;143724;651;47012;-60
2022/01/31 00:30:11;;;;;;;17.23;12.45;;;;;;;;;;143729;599;45021;-60
2022/01/31 00:32:38;;;;;;;17.02;11.07;;;;;;;;;;143730;663;46012;-60
2022/01/31 00:35:06;;;;;;;17.58;12.20;;;;;;;;;;143724;577;47022;-60
2022/01/31 00:37:33;;;;;;;16.00;10.52;;;;;;;;;;143727;565;46010;-61
2022/01/31 00:40:00;;;;;;;12.80;9.55;;;;;;;;;;143729;581;45020;-61
2022/01/31 00:42:28;;;;;;;14.50;10.18;;;;;;;;;;143729;599;46020;-60
2022/01/31 00:45:06;;;;;;;15.20;10.20;;;;;;;;;;143724;660;47023;-60
2022/01/31 00:47:33;;;;;;;12.05;9.32;;;;;;;;;;143725;638;47010;-60
2022/01/31 00:50:08;;;;;;;14.63;10.60;;;;;;;;;;143727;569;45909;-60
2022/01/31 00:52:38;;;;;;;14.30;10.35;;;;;;;;;;143729;572;46021;-60
2022/01/31 00:55:06;;;;;;;14.68;9.93;;;;;;;;;;143725;652;47020;-60
2022/01/31 00:57:33;;;;;;;14.00;9.45;;;;;;;;;;143725;601;46021;-60
2022/01/31 01:00:01;;;;;;;22.95;11.30;;;;;;;;;;143728;579;45021;-59
2022/01/31 01:02:28;;;;;;;13.52;9.52;;;;;;;;;;143730;614;46020;-60
2022/01/31 01:04:55;;;;;;;16.75;9.77;;;;;;;;;;143725;597;47020;-61
2022/01/31 01:07:22;;;;;;;12.93;9.05;;;;;;;;;;143727;651;46028;-60
2022/01/31 01:09:49;;;;;;;14.52;8.88;;;;;;;;;;143726;589;45908;-61
2022/01/31 01:12:18;;;;;;;13.23;8.85;;;;;;;;;;143730;649;46012;-60
2022/01/31 01:14:46;;;;;;;11.52;8.57;;;;;;;;;;143727;583;47020;-60
2022/01/31 01:17:14;;;;;;;12.05;8.77;;;;;;;;;;143725;566;47030;-60
2022/01/31 01:19:41;;;;;;;12.85;7.68;;;;;;;;;;143729;565;45022;-60
2022/01/31 01:22:08;;;;;;;13.13;7.20;;;;;;;;;;143730;564;46015;-60
2022/01/31 01:24:35;;;;;;;12.35;7.95;;;;;;;;;;143726;585;47020;-60
2022/01/31 01:27:01;;;;;;;12.90;7.30;;;;;;;;;;143726;645;46010;-60
2022/01/31 01:29:29;;;;;;;12.52;7.65;;;;;;;;;;143729;573;45021;-60
2022/01/31 01:31:56;;;;;;;17.30;9.82;;;;;;;;;;143730;602;46012;-60
2022/01/31 01:34:23;;;;;;;10.85;7.10;;;;;;;;;;143724;586;47020;-60
2022/01/31 01:36:53;;;;;;;12.40;8.05;;;;;;;;;;143727;624;46021;-60
2022/01/31 01:39:20;;;;;;;13.52;7.35;;;;;;;;;;143727;587;45020;-60
2022/01/31 01:41:47;;;;;;;14.63;7.10;;;;;;;;;;143730;601;46012;-60
2022/01/31 01:44:14;;;;;;;14.20;7.20;;;;;;;;;;143727;601;47020;-61
2022/01/31 01:46:41;;;;;;;13.30;8.18;;;;;;;;;;143725;633;47010;-61
2022/01/31 01:49:08;;;;;;;13.68;8.50;;;;;;;;;;143728;577;46909;-60
2022/01/31 01:51:37;;;;;;;11.90;7.15;;;;;;;;;;143729;569;46021;-61
2022/01/31 01:54:04;;;;;;;13.27;8.18;;;;;;;;;;143724;578;47020;-60
2022/01/31 01:56:31;;;;;;;14.63;7.57;;;;;;;;;;143726;606;46010;-61
2022/01/31 01:59:04;;;;;;;11.85;7.20;;;;;;;;;;143729;644;45021;-61
2022/01/31 02:01:31;;;;;;;11.95;7.22;;;;;;;;;;143730;607;46020;-60
2022/01/31 02:03:58;;;;;;;11.48;7.05;;;;;;;;;;143725;575;47020;-60
2022/01/31 02:06:24;;;;;;;11.00;6.68;;;;;;;;;;143726;656;46020;-60
2022/01/31 02:08:52;;;;;;;11.52;7.57;;;;;;;;;;143730;593;45020;-60
2022/01/31 02:11:20;;;;;;;10.38;6.70;;;;;;;;;;143731;587;46020;-60
2022/01/31 02:13:47;;;;;;;10.55;6.22;;;;;;;;;;143723;628;47021;-60
2022/01/31 02:16:17;;;;;;;10.20;6.68;;;;;;;;;;143726;604;46010;-61
2022/01/31 02:18:49;;;;;;;9.32;6.43;;;;;;;;;;143728;585;45020;-60
2022/01/31 02:21:16;;;;;;;9.23;6.30;;;;;;;;;;143730;601;46021;-60
2022/01/31 02:23:44;;;;;;;8.75;5.30;;;;;;;;;;143726;569;47020;-61
2022/01/31 02:26:11;;;;;;;11.95;6.03;;;;;;;;;;143727;596;46011;-61
2022/01/31 02:28:40;;;;;;;9.88;6.03;;;;;;;;;;143729;574;45021;-61
2022/01/31 02:31:07;;;;;;;7.97;6.00;;;;;;;;;;143731;578;46020;-61
2022/01/31 02:33:34;;;;;;;12.55;6.20;;;;;;;;;;143725;604;47021;-60
2022/01/31 02:36:04;;;;;;;8.35;5.80;;;;;;;;;;143726;565;47010;-61
2022/01/31 02:38:32;;;;;;;8.60;6.40;;;;;;;;;;143729;615;45020;-60
2022/01/31 02:40:59;;;;;;;7.65;5.82;;;;;;;;;;143732;611;46012;-60
2022/01/31 02:43:31;;;;;;;11.75;5.60;;;;;;;;;;143726;612;47021;-60
2022/01/31 02:45:59;;;;;;;9.23;6.25;;;;;;;;;;143728;589;46028;-60
2022/01/31 02:48:31;;;;;;;10.85;5.50;;;;;;;;;;143729;572;45020;-60
2022/01/31 02:50:58;;;;;;;8.25;5.80;;;;;;;;;;143730;601;46021;-60
2022/01/31 02:53:28;;;;;;;10.30;6.45;;;;;;;;;;143726;579;47020;-60
2022/01/31 02:55:57;;;;;;;11.10;5.07;;;;;;;;;;143726;628;46027;-60
2022/01/31 02:58:26;;;;;;;8.18;5.15;;;;;;;;;;143730;564;45021;-60
2022/01/31 03:00:54;;;;;;;8.15;4.85;;;;;;;;;;143729;589;46012;-60
2022/01/31 03:03:22;;;;;;;8.85;5.72;;;;;;;;;;143725;601;47020;-60
2022/01/31 03:05:49;;;;;;;9.15;4.57;;;;;;;;;;143725;579;46011;-60
2022/01/31 03:08:16;;;;;;;15.10;6.20;;;;;;;;;;143730;622;45020;-61
2022/01/31 03:10:43;;;;;;;13.23;5.32;;;;;;;;;;143731;610;46012;-61
2022/01/31 03:13:10;;;;;;;10.35;5.72;;;;;;;;;;143726;604;47022;-61
2022/01/31 03:15:37;;;;;;;8.88;5.25;;;;;;;;;;143726;594;47010;-61
2022/01/31 03:18:05;;;;;;;10.93;5.53;;;;;;;;;;143730;585;45020;-61
2022/01/31 03:20:32;;;;;;;11.80;5.55;;;;;;;;;;143730;569;46013;-61
2022/01/31 03:23:00;;;;;;;9.93;5.35;;;;;;;;;;143725;574;47020;-61
2022/01/31 03:25:26;;;;;;;17.55;6.53;;;;;;;;;;143726;570;47010;-61
2022/01/31 03:27:54;;;;;;;12.07;5.43;;;;;;;;;;143729;574;45909;-61
2022/01/31 03:30:23;;;;;;;15.02;6.05;;;;;;;;;;143730;564;46012;-61
2022/01/31 03:32:50;;;;;;;17.27;5.57;;;;;;;;;;143727;576;47020;-61
2022/01/31 03:35:18;;;;;;;15.55;5.20;;;;;;;;;;143725;573;47011;-61
2022/01/31 03:37:45;;;;;;;16.10;5.47;;;;;;;;;;143731;609;45020;-61
2022/01/31 03:40:12;;;;;;;15.00;4.65;;;;;;;;;;143731;576;46012;-61
2022/01/31 03:42:40;;;;;;;13.60;5.03;;;;;;;;;;143726;585;47043;-61
2022/01/31 03:45:09;;;;;;;10.57;5.35;;;;;;;;;;143727;564;46023;-61
2022/01/31 03:47:43;;;;;;;13.13;4.65;;;;;;;;;;143730;615;45020;-61
2022/01/31 03:50:14;;;;;;;21.90;5.68;;;;;;;;;;143730;653;46013;-61
2022/01/31 03:52:42;;;;;;;18.83;5.00;;;;;;;;;;143726;569;47022;-61
2022/01/31 03:55:14;;;;;;;13.35;4.93;;;;;;;;;;143727;652;46010;-61
2022/01/31 03:57:41;;;;;;;10.02;5.05;;;;;;;;;;143730;630;45021;-60
2022/01/31 04:00:10;;;;;;;15.85;5.30;;;;;;;;;;143734;667;46020;-61
2022/01/31 04:02:38;;;;;;;11.65;4.90;;;;;;;;;;143726;576;47020;-60
2022/01/31 04:05:05;;;;;;;17.80;5.78;;;;;;;;;;143727;630;46020;-61
2022/01/31 04:07:32;;;;;;;15.05;4.93;;;;;;;;;;143731;619;45020;-61
2022/01/31 04:09:59;;;;;;;13.62;4.80;;;;;;;;;;143732;582;46020;-61
2022/01/31 04:12:26;;;;;;;22.77;6.22;;;;;;;;;;143726;564;48020;-61
2022/01/31 04:14:53;;;;;;;14.05;5.30;;;;;;;;;;143727;579;47010;-61
2022/01/31 04:17:21;;;;;;;11.10;4.37;;;;;;;;;;143730;584;45909;-61
2022/01/31 04:19:49;;;;;;;18.60;5.35;;;;;;;;;;143731;614;46013;-61
2022/01/31 04:22:18;;;;;;;22.80;5.75;;;;;;;;;;143728;633;47020;-60
2022/01/31 04:24:48;;;;;;;18.10;5.53;;;;;;;;;;143725;604;47010;-60
2022/01/31 04:27:19;;;;;;;11.20;4.57;;;;;;;;;;143728;626;45021;-60
2022/01/31 04:29:47;;;;;;;9.05;4.70;;;;;;;;;;143732;612;46020;-61
2022/01/31 04:32:14;;;;;;;14.05;5.68;;;;;;;;;;143727;569;47020;-61
2022/01/31 04:34:41;;;;;;;22.37;6.40;;;;;;;;;;143727;569;46010;-60
2022/01/31 04:37:10;;;;;;;14.25;5.03;;;;;;;;;;143729;585;45020;-60
2022/01/31 04:39:37;;;;;;;10.40;4.85;;;;;;;;;;143731;586;46020;-61
2022/01/31 04:42:04;;;;;;;14.85;4.68;;;;;;;;;;143726;571;47022;-60
2022/01/31 04:44:31;;;;;;;13.80;4.57;;;;;;;;;;143727;577;47010;-60
2022/01/31 04:46:59;;;;;;;10.40;4.72;;;;;;;;;;143730;598;45909;-60
2022/01/31 04:49:26;;;;;;;18.05;6.07;;;;;;;;;;143732;667;46013;-60
2022/01/31 04:51:53;;;;;;;13.40;5.25;;;;;;;;;;143731;601;47023;-61
2022/01/31 04:54:20;;;;;;;20.12;4.75;;;;;;;;;;143727;572;47010;-60
2022/01/31 04:56:47;;;;;;;16.15;5.32;;;;;;;;;;143730;579;45021;-60
2022/01/31 04:59:14;;;;;;;11.73;4.62;;;;;;;;;;143731;613;46012;-61
2022/01/31 05:01:43;;;;;;;13.10;5.00;;;;;;;;;;143727;591;47022;-60
2022/01/31 05:04:10;;;;;;;7.22;4.50;;;;;;;;;;143728;594;46011;-60
2022/01/31 05:06:39;;;;;;;11.25;4.35;;;;;;;;;;143730;569;45020;-60
2022/01/31 05:09:07;;;;;;;10.43;4.82;;;;;;;;;;143732;613;46020;-60
2022/01/31 05:11:34;;;;;;;13.68;5.15;;;;;;;;;;143729;580;47021;-61
2022/01/31 05:14:02;;;;;;;16.62;5.43;;;;;;;;;;143728;600;46010;-60
2022/01/31 05:16:29;;;;;;;24.00;6.47;;;;;;;;;;143729;577;45020;-61
2022/01/31 05:18:56;;;;;;;13.00;4.97;;;;;;;;;;143732;615;46020;-60
2022/01/31 05:21:23;;;;;;;20.40;5.68;;;;;;;;;;143723;566;48020;-61
2022/01/31 05:23:50;;;;;;;19.67;5.15;;;;;;;;;;143727;571;47010;-60
2022/01/31 05:26:17;;;;;;;16.15;5.10;;;;;;;;;;143730;641;45021;-61
2022/01/31 05:28:44;;;;;;;17.25;5.28;;;;;;;;;;143731;564;47011;-60
2022/01/31 05:31:11;;;;;;;11.07;4.60;;;;;;;;;;143727;621;47022;-60
2022/01/31 05:33:39;;;;;;;13.62;5.30;;;;;;;;;;143728;619;46011;-60
2022/01/31 05:36:07;;;;;;;10.10;4.80;;;;;;;;;;143731;564;45021;-60
2022/01/31 05:38:37;;;;;;;11.90;4.82;;;;;;;;;;143732;579;46012;-60
2022/01/31 05:41:07;;;;;;;13.15;5.00;;;;;;;;;;143727;582;47021;-60
2022/01/31 05:43:34;;;;;;;19.98;5.68;;;;;;;;;;143727;586;47010;-60
2022/01/31 05:46:01;;;;;;;19.27;5.25;;;;;;;;;;143730;566;45020;-60
2022/01/31 05:48:28;;;;;;;8.77;5.10;;;;;;;;;;143731;635;46020;-60
2022/01/31 05:50:55;;;;;;;15.38;5.20;;;;;;;;;;143728;612;47020;-60
2022/01/31 05:53:23;;;;;;;12.90;5.45;;;;;;;;;;143726;570;46917;-60
2022/01/31 05:55:50;;;;;;;10.73;4.90;;;;;;;;;;143730;605;45021;-61
2022/01/31 05:58:17;;;;;;;12.05;5.57;;;;;;;;;;143731;574;46021;-61
2022/01/31 06:00:45;;;;;;;13.43;5.15;;;;;;;;;;143728;603;47020;-60
2022/01/31 06:03:12;;;;;;;10.57;5.43;;;;;;;;;;143726;588;47010;-61
2022/01/31 06:05:39;;;;;;;8.50;5.00;;;;;;;;;;143729;592;45021;-60
2022/01/31 06:08:06;;;;;;;13.07;5.85;;;;;;;;;;143731;590;46020;-60
2022/01/31 06:10:40;;;;;;;18.75;5.43;;;;;;;;;;143729;631;47021;-60
2022/01/31 06:13:07;;;;;;;20.77;6.35;;;;;;;;;;143729;589;46028;-60
2022/01/31 06:15:34;;;;;;;12.15;5.40;;;;;;;;;;143730;587;45020;-59
2022/01/31 06:18:01;;;;;;;17.42;9.23;;;;;;;;;;143732;579;46012;-59
2022/01/31 06:20:28;;;;;;;19.80;9.60;;;;;;;;;;143727;648;47020;-59
2022/01/31 06:22:55;;;;;;;17.83;11.48;;;;;;;;;;143727;662;47010;-59
2022/01/31 06:25:22;;;;;;;30.00;12.35;;;;;;;;;;143730;583;45021;-59
2022/01/31 06:27:51;;;;;;;17.50;11.98;;;;;;;;;;143731;580;46021;-60
2022/01/31 06:30:18;;;;;;;22.85;14.18;;;;;;;;;;143727;592;47036;-60
2022/01/31 06:32:45;;;;;;;21.25;12.37;;;;;;;;;;143727;703;47010;-60
2022/01/31 06:35:13;;;;;;;27.77;12.70;;;;;;;;;;143730;630;45021;-60
2022/01/31 06:37:40;;;;;;;26.87;13.00;;;;;;;;;;143732;581;46012;-60
2022/01/31 06:40:07;;;;;;;17.50;9.80;;;;;;;;;;143726;565;47042;-60
2022/01/31 06:42:34;;;;;;;21.67;9.65;;;;;;;;;;143727;600;46028;-60
2022/01/31 06:45:01;;;;;;;14.13;8.50;;;;;;;;;;143731;577;45020;-60
2022/01/31 06:47:28;;;;;;;19.35;8.30;;;;;;;;;;143732;583;46013;-60
2022/01/31 06:49:56;;;;;;;11.23;6.15;;;;;;;;;;143726;591;47020;-61
2022/01/31 06:52:24;;;;;;;14.23;7.40;;;;;;;;;;143728;587;47010;-61
2022/01/31 06:54:51;;;;;;;14.73;7.18;;;;;;;;;;143729;579;46909;-61
2022/01/31 06:57:19;;;;;;;14.70;7.07;;;;;;;;;;143731;645;46041;-61
2022/01/31 06:59:46;;;;;;;14.43;6.90;;;;;;;;;;143727;636;47018;-61
2022/01/31 07:02:13;;;;;;;20.27;7.35;;;;;;;;;;143728;581;46011;-61
2022/01/31 07:04:40;;;;;;;11.80;6.45;;;;;;;;;;143731;565;45019;-61
2022/01/31 07:07:07;;;;;;;15.05;7.07;;;;;;;;;;143732;648;46012;-61
2022/01/31 07:09:35;;;;;;;14.82;6.90;;;;;;;;;;143728;631;47018;-61
2022/01/31 07:12:05;;;;;;;17.50;6.85;;;;;;;;;;143729;574;46024;-62
2022/01/31 07:14:32;;;;;;;15.25;6.20;;;;;;;;;;143730;564;45018;-61
2022/01/31 07:17:02;;;;;;;12.95;7.65;;;;;;;;;;143732;575;46013;-62
2022/01/31 07:19:32;;;;;;;11.48;5.75;;;;;;;;;;143725;579;47018;-62
2022/01/31 07:21:59;;;;;;;16.83;6.47;;;;;;;;;;143728;597;46027;-61
2022/01/31 07:27:13;;;;;;;9.57;5.28;;;;;;;;;;143729;604;47023;-61
2022/01/31 07:29:41;;;;;;;11.65;5.72;;;;;;;;;;143726;607;47020;-62
2022/01/31 07:32:12;;;;;;;10.57;6.15;;;;;;;;;;143726;662;47010;-62
2022/01/31 07:34:41;;;;;;;16.73;8.25;;;;;;;;;;143731;569;45019;-62
2022/01/31 07:37:10;;;;;;;10.25;5.28;;;;;;;;;;143732;618;46022;-63
2022/01/31 07:39:39;;;;;;;10.77;5.57;;;;;;;;;;143729;585;47019;-62
2022/01/31 07:42:06;;;;;;;19.30;7.80;;;;;;;;;;143731;602;45921;-62
2022/01/31 07:44:33;;;;;;;14.98;5.62;;;;;;;;;;143731;569;45018;-62
2022/01/31 07:47:01;;;;;;;14.87;5.85;;;;;;;;;;143732;586;46013;-63
2022/01/31 07:49:28;;;;;;;11.68;5.75;;;;;;;;;;143725;589;47032;-62
2022/01/31 07:51:56;;;;;;;19.55;9.45;;;;;;;;;;143728;574;46027;-63
2022/01/31 07:54:23;;;;;;;14.80;6.78;;;;;;;;;;143727;589;46019;-63
2022/01/31 07:56:50;;;;;;;16.95;7.03;;;;;;;;;;143732;656;46023;-63
2022/01/31 07:59:17;;;;;;;11.30;5.35;;;;;;;;;;143728;607;47018;-63
2022/01/31 08:01:44;;;;;;;9.07;4.78;;;;;;;;;;143727;570;47010;-63
2022/01/31 08:04:12;;;;;;;15.70;5.53;;;;;;;;;;143730;585;45019;-64
2022/01/31 08:06:39;;;;;;;12.18;6.60;;;;;;;;;;143731;587;46012;-65
2022/01/31 08:09:06;;;;;;;13.35;5.90;;;;;;;;;;143727;623;47020;-63
2022/01/31 08:11:35;;;;;;;11.02;6.32;;;;;;;;;;143728;587;46010;-63
2022/01/31 08:14:07;;;;;;;12.25;5.55;;;;;;;;;;143731;588;45018;-63
2022/01/31 08:16:38;;;;;;;12.35;5.70;;;;;;;;;;143732;668;46022;-62
2022/01/31 08:19:08;;;;;;;13.05;5.72;;;;;;;;;;143727;577;47021;-63
2022/01/31 08:21:35;;;;;;;11.45;4.87;;;;;;;;;;143727;579;47010;-63
2022/01/31 08:24:03;;;;;;;10.75;5.95;;;;;;;;;;143730;591;45911;-64
2022/01/31 08:26:30;;;;;;;10.88;5.72;;;;;;;;;;143732;638;46012;-64
2022/01/31 08:29:01;;;;;;;13.62;6.22;;;;;;;;;;143729;582;46023;-65
2022/01/31 08:31:32;;;;;;;12.90;5.18;;;;;;;;;;143729;613;46013;-66
2022/01/31 08:34:06;;;;;;;14.30;6.00;;;;;;;;;;143734;594;45019;-65
2022/01/31 08:36:36;;;;;;;11.45;5.72;;;;;;;;;;143730;634;46022;-66
2022/01/31 08:39:11;;;;;;;11.90;5.22;;;;;;;;;;143727;582;47019;-65
2022/01/31 08:41:41;;;;;;;14.25;5.78;;;;;;;;;;143724;580;47010;-65
2022/01/31 08:44:10;;;;;;;14.25;5.25;;;;;;;;;;143727;598;46910;-65
2022/01/31 08:46:41;;;;;;;10.98;5.55;;;;;;;;;;143729;586;46013;-65
2022/01/31 08:49:09;;;;;;;14.85;5.50;;;;;;;;;;143728;609;47018;-65
2022/01/31 08:51:37;;;;;;;13.07;5.32;;;;;;;;;;143725;579;47010;-65
2022/01/31 08:54:06;;;;;;;13.07;5.40;;;;;;;;;;143729;604;45019;-65
2022/01/31 08:56:39;;;;;;;9.68;4.95;;;;;;;;;;143729;578;46023;-64
2022/01/31 08:59:07;;;;;;;11.07;5.30;;;;;;;;;;143726;570;47018;-64
2022/01/31 09:01:35;;;;;;;10.43;5.40;;;;;;;;;;143725;591;46022;-64
2022/01/31 09:04:04;;;;;;;10.73;5.28;;;;;;;;;;143729;583;45019;-64
2022/01/31 09:06:33;;;;;;;13.27;5.30;;;;;;;;;;143730;595;46022;-64
2022/01/31 09:09:02;;;;;;;9.30;5.68;;;;;;;;;;143726;666;47019;-65
2022/01/31 09:11:29;;;;;;;9.27;5.25;;;;;;;;;;143726;580;46010;-64
2022/01/31 09:13:56;;;;;;;12.50;5.35;;;;;;;;;;143727;591;45911;-65
2022/01/31 09:16:23;;;;;;;14.85;5.22;;;;;;;;;;143730;589;46022;-65
2022/01/31 09:18:50;;;;;;;11.43;5.78;;;;;;;;;;143726;581;47018;-65
2022/01/31 09:21:17;;;;;;;11.10;5.53;;;;;;;;;;143724;609;47010;-65
2022/01/31 09:23:51;;;;;;;12.23;6.07;;;;;;;;;;143728;618;45019;-64
2022/01/31 09:26:21;;;;;;;10.73;5.93;;;;;;;;;;143729;605;46022;-65
2022/01/31 09:28:52;;;;;;;10.75;6.05;;;;;;;;;;143724;581;47020;-66
2022/01/31 09:31:21;;;;;;;13.60;6.20;;;;;;;;;;143725;564;47010;-66
2022/01/31 09:33:50;;;;;;;10.45;5.80;;;;;;;;;;143729;614;45018;-65
2022/01/31 09:36:17;;;;;;;14.00;5.68;;;;;;;;;;143729;619;46022;-66
2022/01/31 09:38:44;;;;;;;9.95;5.05;;;;;;;;;;143726;644;47019;-65
2022/01/31 09:41:16;;;;;;;16.12;6.68;;;;;;;;;;143726;624;46028;-65
2022/01/31 09:46:52;;;;;;;12.75;6.50;;;;;;;;;;143729;573;46020;-65
2022/01/31 09:49:22;;;;;;;9.82;6.85;;;;;;;;;;143724;565;47020;-65
2022/01/31 09:51:50;;;;;;;11.30;6.57;;;;;;;;;;143725;636;46010;-64
2022/01/31 09:54:17;;;;;;;12.45;6.97;;;;;;;;;;143728;724;45019;-65
2022/01/31 09:56:46;;;;;;;17.27;6.80;;;;;;;;;;143729;571;46022;-65
2022/01/31 09:59:15;;;;;;;10.63;6.25;;;;;;;;;;143725;830;47018;-64
2022/01/31 10:01:52;;;;;;;12.07;6.05;;;;;;;;;;143726;582;46011;-65
2022/01/31 10:04:24;;;;;;;12.35;7.07;;;;;;;;;;143728;569;45018;-64
2022/01/31 10:06:53;;;;;;;13.55;6.47;;;;;;;;;;143731;614;46012;-63
2022/01/31 10:09:31;;;;;;;10.13;6.55;;;;;;;;;;143727;566;47018;-63
2022/01/31 10:12:19;;;;;;;11.50;6.68;;;;;;;;;;143727;809;46028;-63
2022/01/31 10:17:37;;;;;;;12.18;6.15;;;;;;;;;;143730;565;46012;-63
2022/01/31 10:20:25;;;;;;;9.85;5.97;;;;;;;;;;143726;606;46588;-63
2022/01/31 10:22:52;;;;;;;18.12;6.45;;;;;;;;;;143727;572;46023;-64
2022/01/31 10:25:21;;;;;;;13.20;6.05;;;;;;;;;;143728;572;45910;-63
2022/01/31 10:27:51;;;;;;;12.45;5.50;;;;;;;;;;143729;611;46022;-63
2022/01/31 10:30:24;;;;;;;13.02;6.12;;;;;;;;;;143726;623;47019;-63
2022/01/31 10:32:53;;;;;;;10.38;5.15;;;;;;;;;;143726;600;46010;-63
2022/01/31 10:35:29;;;;;;;8.70;5.65;;;;;;;;;;143727;608;46010;-64
2022/01/31 10:38:01;;;;;;;10.88;5.68;;;;;;;;;;143730;586;46022;-65
2022/01/31 10:51:58;;;;;;;8.43;4.90;;;;;;;;;;143726;594;47020;-64
2022/01/31 10:54:38;;;;;;;10.20;4.90;;;;;;;;;;143724;662;47011;-66
2022/01/31 10:57:16;;;;;;;12.07;5.50;;;;;;;;;;143726;575;45910;-63
2022/01/31 10:59:46;;;;;;;9.73;5.37;;;;;;;;;;143729;630;46022;-65
2022/01/31 11:02:24;;;;;;;8.88;5.43;;;;;;;;;;143725;565;47018;-64
2022/01/31 11:04:52;;;;;;;9.43;5.47;;;;;;;;;;143726;595;46010;-66
2022/01/31 11:07:28;;;;;;;11.90;5.50;;;;;;;;;;143729;611;45019;-65
2022/01/31 11:09:56;;;;;;;8.35;5.53;;;;;;;;;;143731;589;46023;-65
2022/01/31 11:12:23;;;;;;;9.82;5.15;;;;;;;;;;143725;570;47018;-64
2022/01/31 11:14:53;;;;;;;9.27;5.43;;;;;;;;;;143725;570;47010;-64
2022/01/31 11:17:20;;;;;;;11.82;5.90;;;;;;;;;;143729;569;45019;-64
2022/01/31 11:19:56;;;;;;;8.60;5.50;;;;;;;;;;143730;566;46012;-65
2022/01/31 11:22:30;;;;;;;9.73;5.40;;;;;;;;;;143727;639;47019;-64
2022/01/31 11:25:04;;;;;;;6.72;5.07;;;;;;;;;;143726;566;46010;-64
2022/01/31 11:27:32;;;;;;;13.13;5.12;;;;;;;;;;143728;592;45018;-63
2022/01/31 11:30:00;;;;;;;6.32;4.95;;;;;;;;;;143730;586;46013;-64
2022/01/31 11:32:28;;;;;;;7.80;5.22;;;;;;;;;;143724;597;47021;-63
2022/01/31 11:34:56;;;;;;;12.23;5.70;;;;;;;;;;143726;612;46010;-64
2022/01/31 11:37:25;;;;;;;13.15;5.15;;;;;;;;;;143728;591;46014;-64
2022/01/31 11:40:08;;;;;;;7.03;4.55;;;;;;;;;;143729;566;46023;-64
2022/01/31 11:42:36;;;;;;;10.40;5.22;;;;;;;;;;143726;606;47018;-64
2022/01/31 11:45:09;;;;;;;8.70;5.37;;;;;;;;;;143726;588;46010;-63
2022/01/31 11:47:38;;;;;;;9.18;5.12;;;;;;;;;;143727;664;45910;-63
2022/01/31 11:50:12;;;;;;;8.75;5.07;;;;;;;;;;143730;579;46012;-64
2022/01/31 11:53:07;;;;;;;9.15;5.65;;;;;;;;;;143725;566;47019;-63
2022/01/31 11:55:38;;;;;;;15.55;7.75;;;;;;;;;;143726;564;47022;-63
2022/01/31 11:58:09;;;;;;;10.82;5.95;;;;;;;;;;143727;855;45018;-63
2022/01/31 12:00:39;;;;;;;14.48;5.43;;;;;;;;;;143729;786;46013;-63
2022/01/31 12:03:09;;;;;;;17.25;6.82;;;;;;;;;;143725;676;47018;-63
2022/01/31 12:05:37;;;;;;;9.63;5.30;;;;;;;;;;143725;570;47010;-63
2022/01/31 12:08:16;;;;;;;21.60;12.98;;;;;;;;;;143728;592;45911;-63
2022/01/31 12:11:16;;;;;;;10.52;6.87;;;;;;;;;;143730;578;46022;-63
2022/01/31 12:13:50;;;;;;;20.40;13.82;;;;;;;;;;143725;569;47018;-63
2022/01/31 12:17:09;;;;;;;17.62;7.32;;;;;;;;;;143728;626;46027;-62
2022/01/31 12:22:59;;;;;;;14.85;7.95;;;;;;;;;;143729;622;46011;-62
2022/01/31 12:25:30;;;;;;;17.30;7.57;;;;;;;;;;143726;727;47018;-63
2022/01/31 12:27:58;;;;;;;12.55;6.72;;;;;;;;;;143726;591;46010;-62
2022/01/31 12:30:37;;;;;;;11.40;6.22;;;;;;;;;;143727;613;45019;-62
2022/01/31 12:33:04;;;;;;;11.75;7.30;;;;;;;;;;143730;591;46022;-62
2022/01/31 12:35:38;;;;;;;13.57;5.68;;;;;;;;;;143725;634;47018;-62
2022/01/31 12:38:06;;;;;;;10.35;6.05;;;;;;;;;;143726;641;46010;-61
2022/01/31 12:40:40;;;;;;;12.70;7.25;;;;;;;;;;143723;626;48018;-62
2022/01/31 12:43:25;;;;;;;12.40;6.05;;;;;;;;;;143729;564;46022;-62
2022/01/31 12:46:09;;;;;;;13.63;6.93;;;;;;;;;;143724;585;47043;-61
2022/01/31 12:48:37;;;;;;;14.00;5.80;;;;;;;;;;143726;583;46023;-62
2022/01/31 12:51:08;;;;;;;9.13;6.43;;;;;;;;;;143725;595;46018;-61
2022/01/31 12:53:42;;;;;;;14.02;5.55;;;;;;;;;;143730;597;46012;-61
2022/01/31 12:56:26;;;;;;;13.85;6.30;;;;;;;;;;143727;607;47018;-61
2022/01/31 12:58:58;;;;;;;9.65;6.53;;;;;;;;;;143727;566;46023;-62
2022/01/31 13:01:40;;;;;;;11.73;5.82;;;;;;;;;;143729;583;45019;-61
2022/01/31 13:04:13;;;;;;;27.15;13.30;;;;;;;;;;143730;607;46012;-62
2022/01/31 13:07:02;;;;;;;19.85;10.98;;;;;;;;;;143726;599;47018;-61
2022/01/31 13:09:32;;;;;;;11.95;7.32;;;;;;;;;;143726;566;46029;-61
2022/01/31 13:12:05;;;;;;;14.75;8.63;;;;;;;;;;143729;569;45018;-61
2022/01/31 13:14:37;;;;;;;16.02;9.30;;;;;;;;;;143728;612;47012;-61
2022/01/31 13:17:16;;;;;;;10.32;6.60;;;;;;;;;;143724;582;47018;-61
2022/01/31 13:19:49;;;;;;;11.68;6.22;;;;;;;;;;143726;584;46018;-61
2022/01/31 13:22:40;;;;;;;15.48;9.10;;;;;;;;;;143727;595;45911;-61
2022/01/31 13:25:10;;;;;;;11.85;6.93;;;;;;;;;;143731;596;46022;-61
2022/01/31 13:27:41;;;;;;;27.15;16.05;;;;;;;;;;143725;647;47018;-61
2022/01/31 13:30:15;;;;;;;42.42;24.95;;;;;;;;;;143727;630;46013;-60
2022/01/31 13:32:42;;;;;;;33.80;16.17;;;;;;;;;;143728;592;45018;-60
2022/01/31 13:35:12;;;;;;;35.03;19.85;;;;;;;;;;143730;570;46022;-60
2022/01/31 13:37:50;;;;;;;29.10;17.40;;;;;;;;;;143725;580;47019;-60
2022/01/31 13:40:49;;;;;;;19.77;11.52;;;;;;;;;;143728;564;46010;-60
2022/01/31 13:43:30;;;;;;;17.67;10.40;;;;;;;;;;143728;592;45020;-60
2022/01/31 13:49:07;;;;;;;13.10;7.87;;;;;;;;;;143727;591;46012;-60
2022/01/31 13:51:47;;;;;;;15.00;7.55;;;;;;;;;;143726;605;46010;-59
2022/01/31 13:54:23;;;;;;;12.73;8.60;;;;;;;;;;143729;571;45018;-59
2022/01/31 13:56:59;;;;;;;15.35;8.68;;;;;;;;;;143729;592;46012;-60
2022/01/31 13:59:30;;;;;;;13.10;6.50;;;;;;;;;;143724;581;47019;-60
2022/01/31 14:02:10;;;;;;;12.18;6.47;;;;;;;;;;143726;636;46012;-60
2022/01/31 14:04:40;;;;;;;16.45;7.70;;;;;;;;;;143728;593;46018;-59
2022/01/31 14:07:24;;;;;;;12.85;7.75;;;;;;;;;;143730;590;46013;-59
2022/01/31 14:09:53;;;;;;;10.50;5.95;;;;;;;;;;143726;606;47018;-60
2022/01/31 14:12:24;;;;;;;10.23;6.75;;;;;;;;;;143725;608;47012;-60
2022/01/31 14:14:51;;;;;;;13.40;5.93;;;;;;;;;;143727;585;45911;-59
2022/01/31 14:17:21;;;;;;;10.77;6.40;;;;;;;;;;143730;602;46012;-59
2022/01/31 14:19:52;;;;;;;11.90;6.55;;;;;;;;;;143724;569;47020;-59
2022/01/31 14:22:26;;;;;;;10.02;6.75;;;;;;;;;;143726;592;46013;-59
2022/01/31 14:24:53;;;;;;;9.20;6.15;;;;;;;;;;143729;623;45018;-59
2022/01/31 14:27:21;;;;;;;13.43;6.30;;;;;;;;;;143730;581;46012;-59
2022/01/31 14:29:58;;;;;;;13.77;6.40;;;;;;;;;;143724;579;47019;-59
2022/01/31 14:32:30;;;;;;;12.27;6.28;;;;;;;;;;143726;575;46012;-59
2022/01/31 14:34:59;;;;;;;8.90;5.87;;;;;;;;;;143729;576;45018;-60
2022/01/31 14:37:31;;;;;;;9.77;5.87;;;;;;;;;;143729;572;46013;-59
2022/01/31 14:40:19;;;;;;;13.13;6.85;;;;;;;;;;143726;592;47018;-59
2022/01/31 14:43:14;;;;;;;10.52;6.45;;;;;;;;;;143728;565;46012;-59
2022/01/31 14:48:33;;;;;;;11.05;6.00;;;;;;;;;;143725;588;48012;-59
2022/01/31 14:51:00;;;;;;;12.30;6.80;;;;;;;;;;143724;600;47020;-60
2022/01/31 14:53:27;;;;;;;11.43;5.53;;;;;;;;;;143725;565;47013;-60
2022/01/31 14:55:58;;;;;;;12.37;5.78;;;;;;;;;;143728;583;45018;-60
2022/01/31 14:58:25;;;;;;;10.38;6.05;;;;;;;;;;143730;566;46013;-59
2022/01/31 15:00:52;;;;;;;12.13;6.25;;;;;;;;;;143726;565;47021;-59
2022/01/31 15:03:22;;;;;;;9.73;5.80;;;;;;;;;;143725;594;47012;-58
2022/01/31 15:05:52;;;;;;;11.25;6.47;;;;;;;;;;143730;617;45019;-60
2022/01/31 15:08:18;;;;;;;14.32;7.72;;;;;;;;;;143731;649;46023;-59
2022/01/31 15:10:47;;;;;;;12.85;7.70;;;;;;;;;;143726;577;47018;-58
2022/01/31 15:13:14;;;;;;;11.18;8.13;;;;;;;;;;143727;596;47013;-58
2022/01/31 15:15:42;;;;;;;13.52;8.75;;;;;;;;;;143728;582;45019;-59